Brampton-Caledon Airport

CNC3 · Ontario, Kanada

METAR-Geschichte CNC3 · Brampton-Caledon Airport

Unten siehst du die METARs der letzten paar Tage. Wähle ein Jahr, um ältere METARs ab dem Jahr 2007 zu durchsuchen.

24. Juni 2024

Uhrzeit Code Wetter Temp. Sichtweite Wolkendecke Wind METAR/SPECI
17:00
V
28 °C 15 mi - 350° 350° 8 - 15 kt METAR CYYZ 242100Z 35008G15KT 290V010 15SM FEW075 28/09 A2989 RMK CU1 CU TR SLP121 DENSITY ALT 2300FT
16:00
V
28 °C 15 mi - 010° 010° 13 - 19 kt METAR CYYZ 242000Z 01013G19KT 300V030 15SM FEW075 28/08 A2990 RMK CU1 SLP125 DENSITY ALT 2300FT
15:00
V
28 °C 15 mi - 020° 020° 12 - 21 kt METAR CYYZ 241900Z 02012G21KT 330V030 15SM FEW070 28/10 A2989 RMK CU1 SLP121 DENSITY ALT 2200FT
14:00
V
28 °C 15 mi - 340° 340° 15 - 23 kt METAR CYYZ 241800Z 34015G23KT 15SM SCT065 28/09 A2989 RMK CU3 SLP123 DENSITY ALT 2200FT
13:00
V
27 °C 15 mi - 350° 350° 16 - 22 kt METAR CYYZ 241700Z 35016G22KT 15SM FEW060 27/11 A2989 RMK CU1 SLP122 DENSITY ALT 2200FT
12:00
V
27 °C 15 mi - 340° 340° 15 kt METAR CYYZ 241600Z 34015KT 15SM FEW055 FEW250 27/11 A2987 RMK CU1CI1 CU TR CI TR SLP117 DENSITY ALT 2100FT
11:00
V
25 °C 15 mi - 350° 350° 13 - 19 kt METAR CYYZ 241500Z 35013G19KT 15SM FEW040 FEW250 25/14 A2987 RMK CU1CI2 CU TR SLP115 DENSITY ALT 1900FT
10:00
V
23 °C 15 mi - 340° 340° 10 kt METAR CYYZ 241400Z 34010KT 15SM SCT250 23/15 A2986 RMK CI3 SLP111 DENSITY ALT 1700FT
09:00
V
21 °C 15 mi - 330° 330° 15 kt METAR CYYZ 241300Z 33015KT 15SM FEW120 SCT240 21/15 A2985 RMK AC1CI2 SLP108 DENSITY ALT 1500FT
08:00
V
19 °C 15 mi 23.000 ft 330° 330° 13 kt METAR CYYZ 241200Z 33013KT 15SM SCT110 BKN230 19/14 A2983 RMK AC3CI2 SLP102 DENSITY ALT 1300FT
07:00
V
19 °C 15 mi 23.000 ft 320° 320° 12 - 18 kt METAR CYYZ 241100Z 32012G18KT 15SM SCT120 BKN230 19/14 A2980 RMK AC4CI3 SH DIST W SLP093 DENSITY ALT 1300FT
06:00
V
18 °C 15 mi 11.000 ft 340° 340° 13 - 20 kt METAR CYYZ 241000Z 34013G20KT 15SM BKN110 BKN250 18/13 A2978 RMK AC7CI1 CI TR SLP085 DENSITY ALT 1200FT
05:00
V
18 °C 15 mi - 340° 340° 16 - 21 kt METAR CYYZ 240900Z 34016G21KT 15SM FEW120 18/13 A2975 RMK AC2 SLP074 DENSITY ALT 1200FT
04:00
V
17 °C 15 mi - 330° 330° 14 - 20 kt METAR CYYZ 240800Z 33014G20KT 15SM SKC 17/13 A2972 RMK SLP065 DENSITY ALT 1300FT
03:00
V
18 °C 15 mi - 330° 330° 17 - 26 kt METAR CYYZ 240700Z 33017G26KT 15SM SKC 18/12 A2971 RMK SLP060 DENSITY ALT 1300FT
02:00
V
18 °C 15 mi - 330° 330° 18 - 24 kt METAR CYYZ 240600Z 33018G24KT 15SM FEW055 18/13 A2969 RMK SC1 SLP055 DENSITY ALT 1300FT
01:00
V
19 °C 15 mi - 320° 320° 18 - 24 kt METAR CYYZ 240500Z 32018G24KT 15SM SCT055 19/13 A2966 RMK SC3 SLP045 DENSITY ALT 1500FT
00:00
V
19 °C 15 mi 5.500 ft 320° 320° 15 - 23 kt METAR CYYZ 240400Z 32015G23KT 15SM BKN055 19/13 A2965 RMK SC7 SLP040 DENSITY ALT 1500FT

23. Juni 2024

Uhrzeit Code Wetter Temp. Sichtweite Wolkendecke Wind METAR/SPECI
23:00
V
19 °C 15 mi 5.500 ft 320° 320° 19 - 26 kt METAR CYYZ 240300Z 32019G26KT 15SM FEW030 BKN055 19/13 A2963 RMK CF2SC4 SLP033 DENSITY ALT 1600FT
22:00
V
20 °C 15 mi 4.500 ft 320° 320° 20 - 25 kt METAR CYYZ 240200Z 32020G25KT 15SM FEW030 BKN045 20/13 A2961 RMK CF1SC7 CF TR SLP028 DENSITY ALT 1600FT
21:00
V
20 °C 15 mi 4.500 ft 320° 320° 18 - 25 kt METAR CYYZ 240100Z 32018G25KT 15SM FEW037 BKN045 20/14 A2959 RMK CF1SC6 SLP021 DENSITY ALT 1700FT
20:00
V
21 °C 15 mi 3.700 ft 310° 310° 25 - 32 kt METAR CYYZ 240000Z 31025G32KT 15SM BKN037 21/13 A2957 RMK SC5 SLP015 DENSITY ALT 1800FT
19:00
M
22 °C 15 mi 3.000 ft 290° 290° 24 - 32 kt METAR CYYZ 232300Z 29024G32KT 15SM BKN030 22/15 A2955 RMK SC7 SLP006 DENSITY ALT 2000FT
18:00
V
23 °C 15 mi 3.300 ft 290° 290° 25 - 33 kt METAR CYYZ 232200Z 29025G33KT 15SM FEW025 BKN033 BKN250 23/16 A2951 RMK CU1SC5CI1 SLP995 DENSITY ALT 2100FT
17:00
M
24 °C 15 mi 3.000 ft 280° 280° 24 - 36 kt METAR CYYZ 232100Z 28024G36KT 15SM BKN030 24/17 A2950 RMK CU5 SLP989 DENSITY ALT 2300FT
16:00
V
25 °C 15 mi 3.500 ft 270° 270° 30 - 38 kt METAR CYYZ 232000Z 27030G38KT 15SM BKN035 25/17 A2949 RMK CU5 SLP987 DENSITY ALT 2300FT
15:00
V
26 °C 15 mi 5.000 ft 260° 260° 25 - 35 kt METAR CYYZ 231900Z 26025G35KT 15SM SCT030TCU BKN050 26/19 A2948 RMK TCU3SC2 TCU E-S SLP984 DENSITY ALT 2500FT
14:46
M
26 °C 15 mi 3.000 ft 270° 270° 24 - 31 kt METAR CYYZ 231846Z 27024G31KT 15SM BKN030 BKN050 26/20 A2948 RMK CU5SC1 SLP983 DENSITY ALT 2500FT
14:37
V
26 °C 15 mi 5.500 ft 260° 260° 20 - 28 kt METAR CYYZ 231837Z 26020G28KT 15SM -SHRA SCT035 BKN055 26/20 A2948 RMK CU3SC3 SLP982 DENSITY ALT 2500FT
14:00
V
26 °C 15 mi 6.100 ft 240° 240° 20 - 30 kt METAR CYYZ 231800Z 24020G30KT 15SM SCT035 BKN061 26/21 A2948 RMK CU3SC4 SLP984 DENSITY ALT 2500FT
13:10
V
26 °C 15 mi 5.500 ft 240° 240° 16 - 29 kt METAR CYYZ 231710Z 24016G29KT 15SM SCT030 BKN055 26/22 A2950 RMK CU3SC3 SLP989 DENSITY ALT 2500FT
13:00
V
24 °C 10 mi 3.500 ft 250° 250° 22 - 29 kt METAR CYYZ 231700Z 25022G29KT 10SM -SHRA SCT024 BKN035 24/21 A2950 RMK CU3SC4 SLP990 DENSITY ALT 2300FT
12:00
V
24 °C 15 mi 4.500 ft 240° 240° 16 - 27 kt METAR CYYZ 231600Z 24016G27KT 15SM SCT030 BKN045 OVC060 24/21 A2951 RMK CU3SC3SC2 SLP991 DENSITY ALT 2300FT
11:36
V
26 °C 12 mi 6.200 ft 220° 220° 14 - 24 kt METAR CYYZ 231536Z 22014G24KT 12SM -SHRA SCT035 BKN062 26/20 A2950 RMK CU4SC3 SLP989 DENSITY ALT 2500FT
11:00
V
26 °C 15 mi 25.000 ft 220° 220° 18 kt METAR CYYZ 231500Z 22018KT 15SM FEW045 SCT062 BKN250 26/21 A2951 RMK CU2SC2CI1 SLP992 DENSITY ALT 2500FT
10:00
V
24 °C 15 mi 24.000 ft 240° 240° 14 kt METAR CYYZ 231400Z 24014KT 15SM FEW020 SCT073 SCT130 BKN240 24/21 A2951 RMK CF1AC2AC1CI1 SLP993 DENSITY ALT 2300FT
09:00
V
24 °C 15 mi 7.200 ft 240° 240° 12 - 17 kt METAR CYYZ 231300Z 24012G17KT 15SM FEW050 BKN072 BKN160 24/22 A2953 RMK CU1AC5AC2 CU TR SLP000 DENSITY ALT 2200FT
08:46
V
24 °C 15 mi 8.200 ft 240° 240° 13 kt METAR CYYZ 231246Z 24013KT 15SM FEW055 BKN082 OVC180 24/22 A2953 RMK CU2AC5AC1 SLP999 DENSITY ALT 2200FT
08:30
V
23 °C 10 mi 8.500 ft 240° 240° 13 - 19 kt METAR CYYZ 231230Z 24013G19KT 10SM -SHRA FEW040 BKN085 OVC180 23/22 A2954 RMK CU2AC4AC2 SLP003 DENSITY ALT 2200FT
08:23
V
24 °C 5 mi 8.000 ft 240° 240° 9 kt METAR CYYZ 231223Z 24009KT 5SM SHRA BR SCT033 OVC080 24/21 A2953 RMK CU3AC5 SLP000 DENSITY ALT 2300FT
08:00
V
23 °C 15 mi 9.500 ft 190° 190° 6 kt METAR CYYZ 231200Z 19006KT 15SM FEW060 BKN095 OVC240 23/21 A2951 RMK CU1AC6CI2 CU TR SLP994 DENSITY ALT 2200FT
07:45
V
23 °C 15 mi 9.000 ft 190° 190° 5 kt METAR CYYZ 231145Z 19005KT 15SM -SHRA FEW060 BKN090 OVC240 23/21 A2953 RMK CU1AC6CI2 CU TR SLP998 DENSITY ALT 2200FT
07:00
V
22 °C 15 mi 16.000 ft 170° 170° 4 kt METAR CYYZ 231100Z 17004KT 15SM FEW060 BKN160 BKN220 22/21 A2954 RMK SC1AC4CI2 SLP005 DENSITY ALT 2000FT
06:00
V
20 °C 12 mi 16.000 ft 150° 150° 5 kt METAR CYYZ 231000Z 15005KT 12SM FEW060 BKN160 OVC210 20/20 A2957 RMK SC1AC6CS1 SLP013 DENSITY ALT 1800FT
05:00
V
20 °C 15 mi 10.000 ft 140° 140° 2 kt METAR CYYZ 230900Z 14002KT 15SM FEW070 BKN100 20/20 A2960 RMK AC2AC5 SLP022 DENSITY ALT 1700FT
04:00
V
20 °C 15 mi 11.000 ft 150° 150° 4 kt METAR CYYZ 230800Z 15004KT 15SM FEW075 OVC110 20/20 A2963 RMK AC2AC6 SLP033 DENSITY ALT 1600FT
03:00
V
20 °C 15 mi 10.000 ft 160° 160° 5 kt METAR CYYZ 230700Z 16005KT 120V180 15SM SCT050 OVC100 20/20 A2966 RMK SC3AC5 SLP045 DENSITY ALT 1600FT
02:00
V
20 °C 15 mi 6.000 ft 140° 140° 4 kt METAR CYYZ 230600Z 14004KT 15SM FEW011 BKN060 OVC100 20/20 A2969 RMK ST1SC5AC3 ST TR SLP055 DENSITY ALT 1600FT
01:00
V
20 °C 15 mi 6.000 ft 120° 120° 5 kt METAR CYYZ 230500Z 12005KT 15SM FEW011 BKN060 OVC090 20/20 A2973 RMK ST1SC5AC3 ST TR SLP069 DENSITY ALT 1600FT
00:00
V
20 °C 15 mi 8.000 ft 120° 120° 6 kt METAR CYYZ 230400Z 12006KT 15SM FEW011 OVC080 20/20 A2977 RMK SF1AC8 SF TR SLP080 DENSITY ALT 1500FT

22. Juni 2024

Uhrzeit Code Wetter Temp. Sichtweite Wolkendecke Wind METAR/SPECI
23:36
V
20 °C 15 mi 8.000 ft 130° 130° 3 kt METAR CYYZ 230336Z 13003KT 090V170 15SM -RA SCT011 OVC080 20/20 A2979 RMK ST3AC5 SLP087 DENSITY ALT 1500FT
23:00
V
20 °C 15 mi 7.000 ft 120° 120° 9 kt METAR CYYZ 230300Z 12009KT 090V160 15SM SCT010 OVC070 20/20 A2981 RMK ST3AC5 SLP094 DENSITY ALT 1500FT
22:00
V
21 °C 15 mi 12.000 ft 120° 120° 7 kt METAR CYYZ 230200Z 12007KT 15SM FEW012 OVC120 21/20 A2980 RMK SF1AC8 SF TR SLP092 DENSITY ALT 1600FT
21:00
V
21 °C 15 mi 15.000 ft 110° 110° 10 kt METAR CYYZ 230100Z 11010KT 15SM OVC150 21/19 A2982 RMK AC8 SLP098 DENSITY ALT 1600FT
20:00
V
21 °C 12 mi 12.000 ft 100° 100° 9 kt METAR CYYZ 230000Z 10009KT 12SM SCT050 OVC120 21/19 A2984 RMK SC3AC5 SLP106 DENSITY ALT 1500FT
19:43
V
21 °C 12 mi 6.000 ft 100° 100° 9 kt METAR CYYZ 222343Z 10009KT 080V150 12SM FEW050 BKN060 OVC120 21/19 A2986 RMK CU1SC6AC2 CU TR SLP111 DENSITY ALT 1500FT
19:00
V
21 °C 12 mi 6.000 ft 070° 070° 5 kt METAR CYYZ 222300Z 07005KT 040V100 12SM -SHRA BKN060 OVC120 21/19 A2988 RMK SC5AC3 CVCTV CLD EMBD SLP120 DENSITY ALT 1500FT
18:00
V
22 °C 12 mi 16.000 ft 110° 110° 7 kt METAR CYYZ 222200Z 11007KT 12SM FEW014 SCT060 OVC160 22/20 A2988 RMK SF1CU2AC5 SLP119 DENSITY ALT 1600FT
17:48
V
22 °C 12 mi 4.000 ft 090° 090° 7 kt METAR CYYZ 222148Z 09007KT 12SM SCT015 BKN040 OVC170 22/20 A2989 RMK SF3CU2AC3 SLP122 DENSITY ALT 1600FT
17:38
M
22 °C 12 mi 1.400 ft 110° 110° 6 kt METAR CYYZ 222138Z 11006KT 070V140 12SM -SHRA BKN014 BKN040TCU OVC090 22/20 A2990 RMK SF5TCU2AC1 SLP126 DENSITY ALT 1500FT
17:30
M
22 °C 12 mi 1.300 ft 120° 120° 5 kt METAR CYYZ 222130Z 12005KT 070V140 12SM BKN013 BKN045TCU OVC170 22/20 A2990 RMK SF5TCU2AC1 PRESRR SLP126 DENSITY ALT 1600FT
17:00
V
22 °C 12 mi 7.000 ft 070° 070° 5 kt METAR CYYZ 222100Z 07005KT 020V120 12SM TS FEW012 SCT035CB BKN070 BKN160 22/20 A2990 RMK SF1CB2AC3AC1 SLP124 DENSITY ALT 1600FT
16:28
V
22 °C 12 mi 8.000 ft 080° 080° 8 kt METAR CYYZ 222028Z 08008KT 050V120 12SM TS FEW040CB BKN080 BKN160 22/20 A2990 RMK CB2AC3AC2 CB W-NW PRESFR SLP125 DENSITY ALT 1600FT
16:00
V
23 °C 12 mi 10.000 ft 110° 110° 8 kt METAR CYYZ 222000Z 11008KT 12SM FEW010 SCT040 BKN100 23/22 A2990 RMK SF1SC3AC3 SF TR SLP126 DENSITY ALT 1700FT
15:10
V
22 °C 12 mi 6.400 ft 110° 110° 8 kt METAR CYYZ 221910Z 11008KT 12SM FEW009 SCT040 BKN064 BKN190 22/22 A2992 RMK SF1CU3SC2AC1 SF TR SLP132 DENSITY ALT 1600FT
15:00
V
23 °C 10 mi 6.200 ft 110° 110° 8 kt METAR CYYZ 221900Z 11008KT 10SM -SHRA FEW010 SCT035TCU BKN062 23/23 A2993 RMK SF1TCU2SC4 SLP134 DENSITY ALT 1600FT
14:49
V
23 °C 10 mi 6.200 ft 150° 150° 10 kt METAR CYYZ 221849Z 15010KT 090V160 10SM -SHRA SCT035TCU BKN062 23/21 A2994 RMK TCU3SC4 SLP140 DENSITY ALT 1600FT
14:20
V
22 °C 12 mi 10.000 ft 090° 090° 8 kt METAR CYYZ 221820Z 09008KT 070V150 12SM FEW045 SCT062 BKN100 22/22 A2993 RMK CU2SC2AC2 PRESFR SLP136 DENSITY ALT 1600FT
14:00
V
22 °C 12 mi 6.000 ft 120° 120° 8 kt METAR CYYZ 221800Z 12008KT 12SM -SHRA FEW040TCU BKN060 BKN100 22/22 A2996 RMK TCU2SC3AC2 PRESFR SLP145 DENSITY ALT 1500FT
13:53
V
21 °C 12 mi 5.500 ft 110° 110° 8 - 16 kt METAR CYYZ 221753Z 11008G16KT 100V170 12SM -SHRA FEW040TCU BKN055 BKN075 21/20 A2996 RMK TCU2SC4AC1 SLP148 DENSITY ALT 1400FT
13:41
V
22 °C 12 mi 6.000 ft 140° 140° 9 kt METAR CYYZ 221741Z 14009KT 12SM SCT045 BKN060 BKN090 22/20 A2998 RMK CU2SC4AC1 SLP152 DENSITY ALT 1500FT
13:16
V
23 °C 12 mi 10.000 ft 110° 110° 10 kt METAR CYYZ 221716Z 11010KT 12SM -SHRA SCT035 BKN100 23/20 A2996 RMK CU3AC4 SLP146 DENSITY ALT 1600FT
13:00
V
24 °C 15 mi 25.000 ft 130° 130° 9 kt METAR CYYZ 221700Z 13009KT 15SM FEW060 SCT140 BKN250 24/20 A2997 RMK CU1AC3CI1 SLP149 DENSITY ALT 1800FT
12:00
V
24 °C 15 mi 26.000 ft 140° 140° 7 kt METAR CYYZ 221600Z 14007KT 15SM FEW050 SCT160 BKN260 24/20 A3000 RMK CU1AC3CI2 SLP158 DENSITY ALT 1700FT
11:00
V
24 °C 15 mi 26.000 ft 140° 140° 7 kt METAR CYYZ 221500Z 14007KT 110V180 15SM SCT160 BKN260 24/20 A3001 RMK AC4CI2 SLP162 DENSITY ALT 1700FT
10:00
V
24 °C 15 mi 25.000 ft Var Var 3 kt METAR CYYZ 221400Z VRB03KT 15SM FEW065 SCT160 BKN250 24/20 A3002 RMK CU1AC3CI3 CU TR SLP167 DENSITY ALT 1600FT
09:00
V
23 °C 15 mi 25.000 ft 120° 120° 3 kt METAR CYYZ 221300Z 12003KT 080V180 15SM FEW060 SCT075 BKN250 23/19 A3003 RMK CU1AC3CI2 CU TR SLP170 DENSITY ALT 1500FT
08:00
V
21 °C 15 mi 25.000 ft 100° 100° 3 kt METAR CYYZ 221200Z 10003KT 15SM SCT082 BKN250 21/18 A3003 RMK AC5CI2 SLP169 DENSITY ALT 1300FT
07:00
V
21 °C 15 mi 18.000 ft 120° 120° 3 kt METAR CYYZ 221100Z 12003KT 070V130 15SM SCT080 BKN180 BKN250 21/18 A3004 RMK AC3AC2CI1 SLP173 DENSITY ALT 1300FT
06:00
V
21 °C 15 mi 25.000 ft 090° 090° 3 kt METAR CYYZ 221000Z 09003KT 15SM SCT030 SCT100 BKN250 21/18 A3004 RMK SC4AC1CI1 AC TR CONTRAILS SLP173 DENSITY ALT 1300FT
05:00
V
21 °C 15 mi 10.000 ft Var Var 2 kt METAR CYYZ 220900Z VRB02KT 15SM FEW070 BKN100 21/19 A3004 RMK AS2AC5 SLP173 DENSITY ALT 1300FT
04:00
V
21 °C 15 mi 5.000 ft 360° 360° 0 kt METAR CYYZ 220800Z 00000KT 15SM BKN050 OVC080 21/19 A3005 RMK ST5AS3 SLP175 DENSITY ALT 1300FT
03:00
V
21 °C 15 mi 16.000 ft 360° 360° 0 kt METAR CYYZ 220700Z 00000KT 15SM FEW080 OVC160 21/19 A3005 RMK AS1AS8 AS TR SLP177 DENSITY ALT 1300FT
02:00
V
21 °C 15 mi 14.000 ft 110° 110° 2 kt METAR CYYZ 220600Z 11002KT 15SM BKN140 BKN180 21/19 A3005 RMK AC5AC2 SLP178 DENSITY ALT 1300FT
Eine Änderung melden